Time;durP1;ratioP1;P1;durP2;ratioP2;P2;SDS_P1;SDS_P2;PMS_P1;PMS_P2;Temp;Humidity;BMP_temperature;BMP_pressure;BME280_temperature;BME280_humidity;BME280_pressure;Samples;Min_cycle;Max_cycle;Signal;HPM_P1;HPM_P2
2021/04/09 00:00:14;;;;;;;17.00;14.70;;;24.00;52.40;;;;;;5095563;28;20485;-87
2021/04/09 00:02:40;;;;;;;20.33;15.80;;;24.00;52.40;;;;;;5095787;28;20442;-87
2021/04/09 00:05:09;;;;;;;16.83;13.67;;;24.00;52.50;;;;;;5095771;28;20433;-88
2021/04/09 00:07:36;;;;;;;21.20;15.50;;;24.00;52.40;;;;;;5095592;28;20458;-85
2021/04/09 00:10:03;;;;;;;18.90;14.53;;;24.00;52.50;;;;;;5095132;28;20870;-85
2021/04/09 00:12:32;;;;;;;16.67;13.87;;;24.00;52.40;;;;;;5095209;28;20445;-85
2021/04/09 00:14:59;;;;;;;16.70;14.60;;;24.00;52.30;;;;;;5095001;28;20453;-84
2021/04/09 00:17:25;;;;;;;15.57;12.83;;;24.00;52.40;;;;;;5095341;28;20472;-84
2021/04/09 00:19:51;;;;;;;20.10;14.40;;;24.00;52.40;;;;;;5095012;28;20493;-85
2021/04/09 00:22:18;;;;;;;17.30;13.83;;;23.90;53.00;;;;;;5095391;28;20445;-85
2021/04/09 00:24:45;;;;;;;22.03;15.00;;;23.90;52.40;;;;;;5095355;28;20443;-84
2021/04/09 00:27:11;;;;;;;17.50;13.47;;;23.90;52.60;;;;;;5094910;28;20457;-85
2021/04/09 00:29:37;;;;;;;16.43;12.17;;;23.90;52.70;;;;;;5095064;28;20499;-84
2021/04/09 00:32:04;;;;;;;15.73;12.67;;;23.90;52.50;;;;;;5094953;28;20444;-85
2021/04/09 00:34:30;;;;;;;16.57;12.43;;;23.90;52.60;;;;;;5094996;28;20782;-85
2021/04/09 00:36:57;;;;;;;15.10;12.67;;;23.80;52.50;;;;;;5095200;28;20491;-84
2021/04/09 00:39:24;;;;;;;14.03;12.03;;;23.90;52.60;;;;;;5094842;28;20581;-85
2021/04/09 00:41:50;;;;;;;14.30;12.20;;;23.90;52.60;;;;;;5094759;28;20444;-85
2021/04/09 00:44:17;;;;;;;15.40;12.03;;;23.80;52.40;;;;;;5094908;28;20494;-84
2021/04/09 00:46:43;;;;;;;15.77;11.63;;;23.80;52.40;;;;;;5094716;28;20443;-85
2021/04/09 00:49:10;;;;;;;13.60;12.20;;;23.90;52.60;;;;;;5094860;28;20439;-85
2021/04/09 00:51:37;;;;;;;13.83;12.37;;;23.90;52.60;;;;;;5094819;28;20453;-85
2021/04/09 00:54:04;;;;;;;13.80;11.93;;;23.80;52.40;;;;;;5094687;28;20453;-84
2021/04/09 00:56:32;;;;;;;14.33;11.80;;;23.80;52.60;;;;;;5094764;28;20449;-85
2021/04/09 00:59:00;;;;;;;13.80;12.30;;;23.80;52.60;;;;;;5094127;28;20486;-85
2021/04/09 01:01:27;;;;;;;14.87;12.37;;;23.80;52.50;;;;;;5094528;28;20811;-85
2021/04/09 01:03:54;;;;;;;12.63;11.07;;;23.80;52.40;;;;;;5094529;28;20438;-84
2021/04/09 01:06:21;;;;;;;12.03;10.73;;;23.80;52.40;;;;;;5094507;28;20587;-84
2021/04/09 01:08:49;;;;;;;14.50;11.90;;;23.80;52.40;;;;;;5094236;28;20452;-85
2021/04/09 01:11:16;;;;;;;11.97;10.23;;;23.80;52.40;;;;;;5094334;28;20460;-84
2021/04/09 01:13:45;;;;;;;13.97;11.10;;;23.80;52.40;;;;;;5094232;28;20483;-84
2021/04/09 01:16:15;;;;;;;11.10;9.97;;;23.80;53.00;;;;;;5094409;28;20814;-86
2021/04/09 01:18:46;;;;;;;14.97;11.10;;;23.80;52.70;;;;;;5094315;28;20525;-86
2021/04/09 01:21:24;;;;;;;12.30;10.90;;;23.80;52.30;;;;;;5094433;28;20437;-85
2021/04/09 01:24:19;;;;;;;15.97;11.20;;;23.80;52.30;;;;;;5094381;28;20433;-86
2021/04/09 01:27:44;;;;;;;11.80;10.07;;;23.80;52.20;;;;;;5095181;28;20428;-86
2021/04/09 01:31:04;;;;;;;10.60;9.30;;;23.80;52.20;;;;;;5094114;28;20842;-85
2021/04/09 01:33:34;;;;;;;10.57;9.47;;;23.80;52.30;;;;;;5093776;28;20446;-85
2021/04/09 01:36:04;;;;;;;11.63;10.03;;;23.80;52.40;;;;;;5094094;28;20447;-86
2021/04/09 01:38:36;;;;;;;9.20;8.30;;;23.80;52.30;;;;;;5094605;28;20811;-85
2021/04/09 01:41:05;;;;;;;10.00;8.33;;;23.70;52.30;;;;;;5094005;28;20789;-85
2021/04/09 01:43:33;;;;;;;12.80;9.70;;;23.80;52.30;;;;;;5093989;28;20848;-85
2021/04/09 01:46:02;;;;;;;10.93;9.40;;;23.80;52.30;;;;;;5093992;28;20442;-84
2021/04/09 01:48:29;;;;;;;10.23;8.97;;;23.80;52.40;;;;;;5093731;28;20445;-86
2021/04/09 01:50:56;;;;;;;9.80;8.80;;;23.80;52.40;;;;;;5093600;28;20472;-87
2021/04/09 01:53:26;;;;;;;8.20;7.40;;;23.80;52.20;;;;;;5093804;28;20443;-86
2021/04/09 01:55:54;;;;;;;9.80;7.87;;;23.80;52.30;;;;;;5093843;28;20438;-86
2021/04/09 01:58:22;;;;;;;10.53;9.43;;;23.80;52.20;;;;;;5093581;28;20502;-86
2021/04/09 02:00:48;;;;;;;9.33;8.43;;;23.80;52.20;;;;;;5093479;28;20442;-84
2021/04/09 02:03:19;;;;;;;10.13;8.33;;;23.80;52.10;;;;;;5093406;28;20909;-84
2021/04/09 02:05:48;;;;;;;7.90;7.13;;;23.80;52.20;;;;;;5093459;28;20446;-85
2021/04/09 02:08:16;;;;;;;8.10;7.30;;;23.80;52.10;;;;;;5093620;28;20444;-87
2021/04/09 02:10:43;;;;;;;9.43;8.47;;;23.80;52.10;;;;;;5093330;28;20452;-87
2021/04/09 02:13:09;;;;;;;8.37;7.53;;;23.80;52.20;;;;;;5093480;28;20444;-85
2021/04/09 02:15:36;;;;;;;7.80;7.00;;;23.80;52.10;;;;;;5093409;28;20453;-85
2021/04/09 02:18:03;;;;;;;8.17;7.37;;;23.80;52.10;;;;;;5093414;28;20449;-85
2021/04/09 02:20:30;;;;;;;8.90;7.47;;;23.80;52.00;;;;;;5093580;28;20569;-86
2021/04/09 02:22:56;;;;;;;8.23;7.43;;;23.80;52.00;;;;;;5093623;28;20452;-88
2021/04/09 02:25:23;;;;;;;9.23;7.70;;;24.00;52.10;;;;;;5093568;28;20762;-87
2021/04/09 02:27:52;;;;;;;7.60;6.80;;;23.80;52.10;;;;;;5093511;28;20469;-88
2021/04/09 02:30:21;;;;;;;7.83;7.03;;;23.80;52.00;;;;;;5093581;28;21051;-86
2021/04/09 02:32:47;;;;;;;8.40;7.03;;;23.80;52.00;;;;;;5093770;28;20484;-86
2021/04/09 02:35:15;;;;;;;7.73;6.97;;;23.80;52.00;;;;;;5093336;28;20439;-87
2021/04/09 02:37:43;;;;;;;9.23;7.17;;;23.80;52.00;;;;;;5093207;28;20527;-87
2021/04/09 02:40:13;;;;;;;8.00;7.13;;;23.80;52.10;;;;;;5093804;28;20997;-86
2021/04/09 02:42:41;;;;;;;8.10;7.20;;;23.80;52.00;;;;;;5097465;28;20436;-87
2021/04/09 02:45:09;;;;;;;5.70;5.20;;;23.80;52.10;;;;;;5097138;28;20950;-87
2021/04/09 02:47:38;;;;;;;6.33;5.60;;;23.80;52.00;;;;;;5097200;28;20438;-87
2021/04/09 02:50:10;;;;;;;7.83;7.03;;;23.80;52.00;;;;;;5097253;28;20937;-88
2021/04/09 02:52:39;;;;;;;7.23;5.90;;;23.80;52.20;;;;;;5096896;28;20916;-88
2021/04/09 02:55:12;;;;;;;7.00;6.40;;;23.80;52.00;;;;;;5097158;28;20445;-86
2021/04/09 02:57:39;;;;;;;6.33;5.73;;;23.80;52.00;;;;;;5096744;28;20484;-87
2021/04/09 03:00:08;;;;;;;7.90;7.10;;;23.80;52.00;;;;;;5096685;28;21033;-88
2021/04/09 03:02:35;;;;;;;8.00;6.53;;;23.80;52.00;;;;;;5096738;28;20443;-85
2021/04/09 03:05:04;;;;;;;6.83;6.13;;;23.80;52.00;;;;;;5096729;28;20441;-88
2021/04/09 03:07:31;;;;;;;6.37;5.77;;;23.80;52.00;;;;;;5096677;28;20504;-88
2021/04/09 03:09:58;;;;;;;6.30;5.70;;;23.80;51.90;;;;;;5096546;28;20446;-86
2021/04/09 03:12:25;;;;;;;6.37;5.80;;;23.80;52.00;;;;;;5096543;28;20445;-87
2021/04/09 03:14:53;;;;;;;6.63;6.03;;;23.80;51.90;;;;;;5096547;28;20448;-87
2021/04/09 03:17:29;;;;;;;6.30;5.80;;;23.80;52.10;;;;;;5096802;28;20507;-84
2021/04/09 03:19:55;;;;;;;5.10;4.50;;;23.80;52.10;;;;;;5096860;28;20854;-86
2021/04/09 03:22:22;;;;;;;7.03;5.70;;;23.80;51.90;;;;;;5096370;28;20442;-85
2021/04/09 03:24:48;;;;;;;5.17;4.70;;;23.80;52.00;;;;;;5096441;28;20467;-84
2021/04/09 03:27:15;;;;;;;5.40;4.97;;;23.80;52.00;;;;;;5096688;28;20452;-84
2021/04/09 03:29:42;;;;;;;5.70;5.10;;;23.90;52.10;;;;;;5096394;28;20461;-85
2021/04/09 03:32:09;;;;;;;6.50;5.90;;;23.80;51.90;;;;;;5096376;28;20441;-84
2021/04/09 03:34:36;;;;;;;5.63;5.13;;;23.80;52.10;;;;;;5096403;28;20477;-84
2021/04/09 03:37:02;;;;;;;5.50;5.00;;;23.80;52.20;;;;;;5096196;28;20444;-84
2021/04/09 03:39:28;;;;;;;5.60;5.07;;;23.70;51.90;;;;;;5096064;28;20502;-85
2021/04/09 03:41:55;;;;;;;5.53;4.97;;;23.70;51.90;;;;;;5096160;28;20526;-85
2021/04/09 03:44:21;;;;;;;5.53;5.10;;;23.70;52.00;;;;;;5096261;28;20454;-84
2021/04/09 03:46:47;;;;;;;5.57;5.07;;;23.70;52.00;;;;;;5096143;28;20441;-84
2021/04/09 03:49:15;;;;;;;6.30;5.70;;;23.80;52.00;;;;;;5096838;28;20449;-85
2021/04/09 03:51:41;;;;;;;6.50;5.10;;;23.80;52.00;;;;;;5095583;28;20537;-85
2021/04/09 03:54:07;;;;;;;5.30;4.43;;;23.70;51.90;;;;;;5095819;28;20448;-86
2021/04/09 03:56:34;;;;;;;5.57;5.07;;;23.80;51.90;;;;;;5096577;28;20445;-86
2021/04/09 03:59:00;;;;;;;5.53;4.90;;;23.70;51.80;;;;;;5095331;28;20488;-85
2021/04/09 04:01:27;;;;;;;5.33;4.83;;;23.70;52.00;;;;;;5095989;28;20838;-85
2021/04/09 04:03:53;;;;;;;4.37;4.07;;;23.70;51.90;;;;;;5095966;28;20769;-86
2021/04/09 04:06:21;;;;;;;5.20;4.70;;;23.70;51.80;;;;;;5095578;28;20947;-86
2021/04/09 04:08:47;;;;;;;4.87;4.10;;;23.70;51.80;;;;;;5095754;28;20784;-85
2021/04/09 04:11:13;;;;;;;4.10;3.70;;;23.70;51.80;;;;;;5095460;28;20440;-84
2021/04/09 04:13:40;;;;;;;4.47;4.07;;;23.80;52.00;;;;;;5095544;28;21013;-88
2021/04/09 04:16:06;;;;;;;5.50;4.30;;;23.80;51.80;;;;;;5095501;28;20442;-88
2021/04/09 04:18:33;;;;;;;4.63;4.23;;;23.80;51.90;;;;;;5095414;28;20447;-88
2021/04/09 04:20:59;;;;;;;3.60;3.30;;;23.80;51.90;;;;;;5095364;28;20476;-88
2021/04/09 04:23:26;;;;;;;5.20;4.10;;;23.80;51.90;;;;;;5095465;28;20470;-88
2021/04/09 04:25:53;;;;;;;3.90;3.60;;;23.80;51.90;;;;;;5095300;28;20448;-89
2021/04/09 04:28:19;;;;;;;4.00;3.70;;;23.70;51.80;;;;;;5095684;28;20467;-88
2021/04/09 04:30:50;;;;;;;4.60;4.20;;;23.70;51.70;;;;;;5096244;28;20547;-88
2021/04/09 04:33:17;;;;;;;4.63;4.23;;;23.70;51.90;;;;;;5095332;28;20445;-88
2021/04/09 04:35:46;;;;;;;4.17;3.77;;;23.80;51.90;;;;;;5095189;28;20463;-86
2021/04/09 04:38:12;;;;;;;3.90;3.60;;;23.80;52.00;;;;;;5094869;28;20437;-85
2021/04/09 04:40:39;;;;;;;5.00;4.50;;;23.70;51.80;;;;;;5094821;28;20538;-85
2021/04/09 04:43:07;;;;;;;4.80;4.40;;;23.70;51.90;;;;;;5094962;28;20441;-85
2021/04/09 04:45:33;;;;;;;3.87;3.57;;;23.70;51.90;;;;;;5094734;28;20448;-84
2021/04/09 04:47:59;;;;;;;4.20;3.80;;;23.70;51.90;;;;;;5094774;28;20447;-85
2021/04/09 04:50:26;;;;;;;3.60;3.30;;;23.70;51.70;;;;;;5094713;28;20444;-85
2021/04/09 04:52:52;;;;;;;3.70;3.40;;;23.70;51.80;;;;;;5094747;28;20438;-85
2021/04/09 04:55:18;;;;;;;4.17;3.77;;;23.80;51.90;;;;;;5094696;28;20539;-84
2021/04/09 04:57:46;;;;;;;3.40;3.10;;;23.70;51.80;;;;;;5094203;28;20476;-85
2021/04/09 05:00:13;;;;;;;5.10;4.07;;;23.70;51.90;;;;;;5094419;28;20490;-85
2021/04/09 05:02:39;;;;;;;3.57;3.30;;;23.70;51.80;;;;;;5093855;28;20441;-84
2021/04/09 05:05:07;;;;;;;4.07;3.57;;;23.70;51.70;;;;;;5094479;28;20463;-85
2021/04/09 05:07:33;;;;;;;3.90;3.60;;;23.70;51.80;;;;;;5094434;28;20449;-84
2021/04/09 05:10:00;;;;;;;3.17;2.97;;;23.70;51.80;;;;;;5094356;28;20557;-85
2021/04/09 05:12:26;;;;;;;3.90;3.50;;;23.70;51.80;;;;;;5094320;28;20446;-84
2021/04/09 05:14:54;;;;;;;3.20;2.90;;;23.80;51.80;;;;;;5094204;28;20973;-85
2021/04/09 05:17:20;;;;;;;3.70;3.40;;;23.70;51.80;;;;;;5094262;28;20446;-84
2021/04/09 05:19:47;;;;;;;3.60;3.30;;;23.70;51.70;;;;;;5093897;28;20494;-84
2021/04/09 05:22:13;;;;;;;4.03;3.67;;;23.80;51.80;;;;;;5093905;28;20464;-85
2021/04/09 05:24:39;;;;;;;4.57;3.57;;;23.80;51.80;;;;;;5094116;28;20464;-84
2021/04/09 05:27:06;;;;;;;3.33;3.03;;;23.80;51.90;;;;;;5093745;28;20468;-85
2021/04/09 05:29:33;;;;;;;3.50;3.20;;;23.80;51.80;;;;;;5093725;28;20967;-85
2021/04/09 05:32:00;;;;;;;3.30;3.07;;;23.80;51.80;;;;;;5094012;28;20502;-87
2021/04/09 05:34:27;;;;;;;3.60;3.30;;;23.80;52.40;;;;;;5093905;28;20445;-86
2021/04/09 05:36:53;;;;;;;3.77;3.47;;;23.70;51.80;;;;;;5093786;28;20516;-85
2021/04/09 05:39:19;;;;;;;3.40;3.10;;;23.80;51.90;;;;;;5093609;28;20545;-85
2021/04/09 05:41:46;;;;;;;3.27;2.97;;;23.80;51.90;;;;;;5093835;28;20440;-88
2021/04/09 05:44:12;;;;;;;3.30;3.00;;;23.80;51.80;;;;;;5094039;28;20536;-87
2021/04/09 05:46:38;;;;;;;3.47;2.80;;;23.80;51.80;;;;;;5093531;28;20475;-89
2021/04/09 05:49:09;;;;;;;3.77;3.37;;;23.80;52.20;;;;;;5094087;28;20445;-89
2021/04/09 05:51:36;;;;;;;7.03;2.90;;;23.80;52.40;;;;;;5094219;28;20471;-86
2021/04/09 05:54:02;;;;;;;3.10;2.87;;;23.80;51.60;;;;;;5094053;28;20450;-87
2021/04/09 05:56:28;;;;;;;4.03;3.73;;;23.80;52.40;;;;;;5093904;28;20481;-87
2021/04/09 05:58:55;;;;;;;2.60;2.40;;;23.80;52.30;;;;;;5093273;28;20479;-88
2021/04/09 06:01:21;;;;;;;2.70;2.50;;;23.80;52.30;;;;;;5094027;28;20441;-87
2021/04/09 06:03:48;;;;;;;2.90;2.70;;;24.00;52.30;;;;;;5093633;28;20437;-86
2021/04/09 06:06:15;;;;;;;2.80;2.60;;;23.80;52.00;;;;;;5093533;28;20437;-86
2021/04/09 06:08:41;;;;;;;3.30;3.10;;;23.80;52.30;;;;;;5093475;28;20778;-82
2021/04/09 06:11:08;;;;;;;3.10;2.80;;;23.80;52.20;;;;;;5093739;28;20452;-84
2021/04/09 06:13:34;;;;;;;4.60;3.53;;;23.80;52.60;;;;;;5093487;28;20450;-87
2021/04/09 06:16:01;;;;;;;3.13;2.83;;;23.80;52.60;;;;;;5097392;28;20474;-87
2021/04/09 06:18:27;;;;;;;2.97;2.77;;;23.90;52.40;;;;;;5097636;28;20467;-87
2021/04/09 06:20:53;;;;;;;2.53;2.33;;;23.90;52.40;;;;;;5097320;28;20477;-87
2021/04/09 06:23:20;;;;;;;2.90;2.70;;;23.90;52.50;;;;;;5097721;28;20444;-86
2021/04/09 06:25:47;;;;;;;3.03;2.73;;;23.90;52.50;;;;;;5097762;28;20518;-88
2021/04/09 06:28:13;;;;;;;2.20;2.10;;;23.90;52.40;;;;;;5097395;28;20472;-91
2021/04/09 06:30:41;;;;;;;3.17;2.20;;;24.10;52.80;;;;;;5097464;28;20445;-86
2021/04/09 06:33:07;;;;;;;6.67;3.90;;;23.90;51.60;;;;;;5097506;28;20442;-92
2021/04/09 06:35:33;;;;;;;9.30;3.90;;;23.80;47.20;;;;;;5097885;28;20478;-90
2021/04/09 06:38:00;;;;;;;6.93;3.30;;;23.80;47.80;;;;;;5097746;28;20939;-91
2021/04/09 06:40:28;;;;;;;3.43;3.13;;;23.70;49.30;;;;;;5097530;28;20494;-87
2021/04/09 06:42:55;;;;;;;3.90;2.67;;;23.80;50.20;;;;;;5097402;28;20441;-89
2021/04/09 06:45:22;;;;;;;2.73;2.40;;;23.70;50.80;;;;;;5097353;28;20867;-88
2021/04/09 06:47:49;;;;;;;2.73;2.50;;;23.80;51.00;;;;;;5097103;28;20454;-88
2021/04/09 06:50:15;;;;;;;4.33;2.60;;;23.80;51.20;;;;;;5097318;28;20522;-88
2021/04/09 06:52:42;;;;;;;5.10;3.40;;;23.80;51.20;;;;;;5104813;28;20918;-83
2021/04/09 06:55:11;;;;;;;3.23;3.03;;;23.80;48.50;;;;;;5105070;28;20453;-84
2021/04/09 06:57:39;;;;;;;7.07;3.00;;;23.80;47.70;;;;;;5095937;28;20463;-84
2021/04/09 07:00:08;;;;;;;4.20;2.60;;;23.80;47.90;;;;;;5102949;28;20484;-87
2021/04/09 07:02:35;;;;;;;7.30;2.77;;;23.80;48.60;;;;;;5085422;28;20804;-83
2021/04/09 07:05:02;;;;;;;4.80;2.37;;;23.80;49.30;;;;;;5085732;28;20439;-83
2021/04/09 07:07:28;;;;;;;6.80;2.57;;;23.80;49.80;;;;;;5085218;28;20439;-79
2021/04/09 07:09:55;;;;;;;3.37;2.60;;;23.80;49.90;;;;;;5086535;28;20442;-80
2021/04/09 07:12:23;;;;;;;5.27;1.97;;;23.80;49.90;;;;;;5082162;28;20447;-86
2021/04/09 07:14:52;;;;;;;13.83;2.30;;;23.80;50.10;;;;;;5087481;28;20852;-84
2021/04/09 07:17:23;;;;;;;7.23;3.27;;;23.80;50.30;;;;;;5096643;28;20442;-84
2021/04/09 07:19:50;;;;;;;5.13;3.40;;;23.80;50.10;;;;;;5096295;28;20532;-84
2021/04/09 07:22:28;;;;;;;5.60;3.00;;;24.00;48.70;;;;;;5096131;28;20438;-84
2021/04/09 07:25:12;;;;;;;9.40;2.60;;;23.80;47.80;;;;;;5080524;28;20443;-79
2021/04/09 07:27:40;;;;;;;4.77;2.60;;;23.80;48.60;;;;;;5077900;28;20462;-80
2021/04/09 07:30:08;;;;;;;7.00;2.80;;;23.80;49.50;;;;;;5087506;28;20434;-79
2021/04/09 07:32:36;;;;;;;9.97;2.73;;;23.80;49.60;;;;;;5095943;28;20456;-84
2021/04/09 07:35:13;;;;;;;5.03;2.27;;;23.80;49.70;;;;;;5096184;28;20446;-84
2021/04/09 07:37:56;;;;;;;3.27;1.83;;;23.80;50.10;;;;;;5096123;28;20446;-84
2021/04/09 07:40:25;;;;;;;4.10;2.00;;;23.90;50.60;;;;;;5096072;28;20493;-84
2021/04/09 07:42:51;;;;;;;10.80;2.00;;;23.90;50.90;;;;;;5096140;28;20443;-84
2021/04/09 07:45:20;;;;;;;4.37;2.00;;;23.90;51.20;;;;;;5095931;28;20485;-84
2021/04/09 07:47:55;;;;;;;4.27;2.23;;;24.00;51.40;;;;;;5096063;28;20478;-84
2021/04/09 07:50:41;;;;;;;3.10;2.23;;;24.10;51.50;;;;;;5095841;28;20442;-79
2021/04/09 07:53:09;;;;;;;3.20;1.90;;;24.10;50.80;;;;;;5095912;28;20448;-85
2021/04/09 07:55:36;;;;;;;4.50;2.07;;;24.10;50.80;;;;;;5095629;28;20434;-84
2021/04/09 07:58:20;;;;;;;3.30;2.27;;;24.20;51.50;;;;;;5095522;28;20483;-84
2021/04/09 08:00:49;;;;;;;3.33;1.80;;;24.30;51.90;;;;;;5095366;28;20482;-84
2021/04/09 08:03:34;;;;;;;2.57;2.30;;;24.30;52.00;;;;;;5095482;28;20438;-84
2021/04/09 08:06:08;;;;;;;3.00;2.20;;;24.40;52.10;;;;;;5095539;28;20930;-87
2021/04/09 08:08:35;;;;;;;3.40;2.07;;;24.30;50.50;;;;;;5095558;28;20462;-87
2021/04/09 08:11:18;;;;;;;6.30;2.20;;;24.40;52.10;;;;;;5095380;28;20443;-88
2021/04/09 08:13:45;;;;;;;3.10;1.60;;;24.40;52.10;;;;;;5095258;28;20870;-86
2021/04/09 08:16:28;;;;;;;7.40;1.90;;;24.50;52.20;;;;;;5095381;28;20438;-87
2021/04/09 08:18:58;;;;;;;1.67;1.50;;;24.60;52.20;;;;;;5095696;28;20438;-86
2021/04/09 08:21:27;;;;;;;2.70;1.83;;;24.60;52.30;;;;;;5090002;28;20956;-87
2021/04/09 08:23:55;;;;;;;3.33;1.80;;;24.60;50.70;;;;;;5095466;28;20935;-88
2021/04/09 08:26:21;;;;;;;3.30;1.90;;;24.50;50.00;;;;;;5091070;28;20431;-88
2021/04/09 08:28:49;;;;;;;3.43;2.17;;;24.60;51.10;;;;;;5077544;28;20463;-87
2021/04/09 08:31:16;;;;;;;5.60;2.90;;;24.70;51.20;;;;;;5074791;28;20448;-88
2021/04/09 08:33:43;;;;;;;3.27;2.97;;;24.70;48.60;;;;;;5074831;28;20526;-87
2021/04/09 08:36:11;;;;;;;4.53;3.50;;;24.60;47.20;;;;;;5075894;28;20443;-88
2021/04/09 08:38:38;;;;;;;2.23;1.73;;;24.60;47.20;;;;;;5083106;28;20531;-84
2021/04/09 08:41:05;;;;;;;3.73;2.57;;;24.50;48.30;;;;;;5083950;28;20990;-83
2021/04/09 08:43:32;;;;;;;5.50;3.30;;;24.40;47.60;;;;;;5085552;28;20433;-83
2021/04/09 08:45:59;;;;;;;6.27;2.57;;;24.40;47.50;;;;;;5083303;28;20523;-87
2021/04/09 08:48:27;;;;;;;3.63;2.83;;;24.30;47.70;;;;;;5081272;28;20452;-81
2021/04/09 08:50:55;;;;;;;6.37;3.27;;;24.40;46.20;;;;;;5082159;28;20479;-88
2021/04/09 08:53:25;;;;;;;4.10;3.27;;;24.30;46.00;;;;;;5082451;28;20952;-88
2021/04/09 08:55:52;;;;;;;4.50;3.33;;;24.30;45.40;;;;;;5082894;28;20445;-88
2021/04/09 08:58:19;;;;;;;8.33;3.13;;;24.30;45.30;;;;;;5077336;28;20479;-87
2021/04/09 09:00:47;;;;;;;3.90;2.80;;;24.20;45.80;;;;;;5074585;28;20483;-80
2021/04/09 09:03:25;;;;;;;3.07;2.30;;;24.10;46.40;;;;;;5074522;28;20926;-84
2021/04/09 09:06:00;;;;;;;3.30;2.90;;;24.10;46.80;;;;;;5074459;28;20473;-85
2021/04/09 09:08:58;;;;;;;6.27;2.47;;;24.10;46.30;;;;;;5074307;28;20599;-84
2021/04/09 09:11:55;;;;;;;3.40;1.80;;;24.10;46.90;;;;;;5074377;28;20444;-87
2021/04/09 09:14:42;;;;;;;3.73;1.97;;;24.10;48.00;;;;;;5032953;28;20532;-87
2021/04/09 09:17:38;;;;;;;2.03;1.50;;;24.20;48.10;;;;;;5071626;28;20452;-87
2021/04/09 09:20:16;;;;;;;4.80;1.83;;;24.30;48.00;;;;;;5074895;28;20479;-86
2021/04/09 09:22:48;;;;;;;2.00;1.70;;;24.40;48.30;;;;;;5074883;28;20443;-87
2021/04/09 09:25:15;;;;;;;3.30;1.57;;;24.50;48.40;;;;;;5075136;28;20439;-86
2021/04/09 09:27:45;;;;;;;1.93;1.40;;;24.60;48.60;;;;;;5074978;28;20551;-87
2021/04/09 09:30:34;;;;;;;2.73;1.57;;;24.80;48.80;;;;;;5074998;28;20462;-87
2021/04/09 09:33:24;;;;;;;3.60;1.90;;;24.80;48.90;;;;;;5075226;28;20577;-86
2021/04/09 09:36:09;;;;;;;2.70;1.80;;;24.80;49.00;;;;;;5074641;28;21359;-86
2021/04/09 09:38:57;;;;;;;2.40;1.67;;;24.90;49.20;;;;;;5074792;28;20448;-87
2021/04/09 09:41:35;;;;;;;3.43;1.27;;;25.00;49.40;;;;;;5070848;28;20558;-86
2021/04/09 09:44:01;;;;;;;2.67;1.57;;;25.00;49.50;;;;;;5074618;28;20448;-87
2021/04/09 09:46:53;;;;;;;3.00;1.40;;;25.00;49.60;;;;;;5074436;28;20455;-86
2021/04/09 09:49:20;;;;;;;3.20;1.70;;;25.10;49.60;;;;;;5074378;28;20436;-86
2021/04/09 09:51:47;;;;;;;3.10;1.50;;;25.20;49.80;;;;;;5074455;28;20459;-87
2021/04/09 09:54:26;;;;;;;2.70;1.70;;;25.20;49.80;;;;;;5074182;28;20436;-87
2021/04/09 09:56:53;;;;;;;1.60;1.50;;;25.50;50.00;;;;;;5075267;28;20441;-81
2021/04/09 09:59:22;;;;;;;1.90;1.70;;;25.30;48.80;;;;;;5075215;28;20454;-90
2021/04/09 10:01:57;;;;;;;1.20;1.10;;;25.30;49.10;;;;;;5076390;28;20897;-91
2021/04/09 10:04:24;;;;;;;2.70;1.70;;;25.20;49.10;;;;;;5075684;28;20446;-86
2021/04/09 10:06:54;;;;;;;4.50;1.50;;;25.10;49.30;;;;;;5073692;28;20440;-87
2021/04/09 10:09:28;;;;;;;4.90;1.70;;;25.10;49.70;;;;;;5073716;28;20417;-87
2021/04/09 10:11:55;;;;;;;12.63;1.57;;;25.20;49.80;;;;;;5073716;28;20440;-87
2021/04/09 10:14:22;;;;;;;6.70;1.50;;;25.20;50.00;;;;;;5073516;28;20522;-87
2021/04/09 10:16:48;;;;;;;2.13;1.60;;;25.10;50.10;;;;;;5073331;28;20441;-87
2021/04/09 10:19:15;;;;;;;3.70;1.43;;;25.10;50.10;;;;;;5073827;28;20445;-88
2021/04/09 10:21:42;;;;;;;1.53;1.40;;;25.30;50.30;;;;;;5073845;28;20463;-89
2021/04/09 10:24:10;;;;;;;5.53;1.80;;;25.10;50.30;;;;;;5073372;28;20448;-87
2021/04/09 10:26:40;;;;;;;4.13;1.90;;;25.20;50.40;;;;;;5073364;28;20436;-86
2021/04/09 10:29:21;;;;;;;2.37;1.20;;;25.20;50.30;;;;;;5073192;28;20467;-87
2021/04/09 10:31:47;;;;;;;4.73;1.80;;;25.20;49.90;;;;;;5073921;28;20934;-87
2021/04/09 10:34:18;;;;;;;2.60;1.60;;;25.10;50.30;;;;;;5082406;28;20440;-87
2021/04/09 10:36:45;;;;;;;4.33;1.73;;;25.10;49.90;;;;;;5076595;28;20498;-88
2021/04/09 10:39:14;;;;;;;3.77;2.07;;;25.10;49.80;;;;;;5073209;28;20443;-88
2021/04/09 10:41:45;;;;;;;4.40;1.83;;;25.30;50.30;;;;;;5073326;28;20444;-87
2021/04/09 10:44:14;;;;;;;3.40;1.37;;;25.10;49.70;;;;;;5073100;28;21018;-87
2021/04/09 10:46:42;;;;;;;5.17;1.87;;;25.20;49.90;;;;;;5072958;28;20467;-87
2021/04/09 10:49:10;;;;;;;9.77;1.97;;;25.20;49.90;;;;;;5073121;28;20466;-87
2021/04/09 10:51:38;;;;;;;7.90;2.00;;;25.20;50.00;;;;;;5072932;28;20509;-87
2021/04/09 10:54:07;;;;;;;3.77;2.10;;;25.30;50.20;;;;;;5073032;28;20474;-87
2021/04/09 10:56:34;;;;;;;3.50;1.80;;;25.40;50.20;;;;;;5073696;28;20441;-87
2021/04/09 10:59:07;;;;;;;2.00;1.27;;;25.40;50.20;;;;;;5072681;28;20477;-87
2021/04/09 11:01:34;;;;;;;1.70;1.33;;;25.50;50.20;;;;;;5074335;28;20560;-87
2021/04/09 11:04:00;;;;;;;3.57;1.80;;;25.50;50.30;;;;;;5076568;28;20460;-87
2021/04/09 11:06:27;;;;;;;2.90;1.50;;;25.50;50.30;;;;;;5076439;28;20440;-87
2021/04/09 11:09:01;;;;;;;2.00;1.17;;;25.60;50.30;;;;;;5077094;28;20443;-85
2021/04/09 11:11:30;;;;;;;7.23;2.30;;;25.60;50.40;;;;;;5076444;28;20443;-86
2021/04/09 11:14:02;;;;;;;6.40;1.73;;;25.50;48.50;;;;;;5076519;28;20437;-90
2021/04/09 11:16:28;;;;;;;5.60;1.50;;;25.60;48.80;;;;;;5076304;28;20445;-87
2021/04/09 11:18:58;;;;;;;2.93;1.80;;;25.50;50.00;;;;;;5076378;28;20444;-87
2021/04/09 11:21:44;;;;;;;3.10;1.30;;;25.60;50.10;;;;;;5076349;28;20518;-88
2021/04/09 11:24:12;;;;;;;6.27;1.53;;;25.50;50.70;;;;;;5076555;28;20444;-86
2021/04/09 11:26:38;;;;;;;8.30;2.77;;;25.40;50.20;;;;;;5076083;28;20478;-87
2021/04/09 11:29:06;;;;;;;8.03;1.90;;;25.50;50.20;;;;;;5076290;28;20464;-86
2021/04/09 11:31:33;;;;;;;3.73;1.90;;;25.50;50.40;;;;;;5076405;28;20432;-88
2021/04/09 11:34:05;;;;;;;3.70;1.40;;;25.50;50.40;;;;;;5076333;28;20585;-87
2021/04/09 11:36:39;;;;;;;3.80;1.80;;;25.70;50.60;;;;;;5076288;28;20446;-89
2021/04/09 11:39:11;;;;;;;2.60;1.93;;;25.60;50.70;;;;;;5076184;28;20992;-86
2021/04/09 11:41:38;;;;;;;3.13;1.70;;;25.50;50.10;;;;;;5076804;28;20830;-86
2021/04/09 11:44:26;;;;;;;1.60;1.43;;;25.50;49.80;;;;;;5076099;28;20436;-83
2021/04/09 11:46:53;;;;;;;5.87;1.53;;;25.40;49.70;;;;;;5075860;28;20441;-85
2021/04/09 11:49:29;;;;;;;12.03;2.03;;;25.40;50.50;;;;;;5076119;28;20436;-87
2021/04/09 11:51:59;;;;;;;6.23;2.00;;;25.60;50.80;;;;;;5076853;28;20432;-88
2021/04/09 11:54:31;;;;;;;53.13;30.27;;;25.40;50.80;;;;;;5075895;28;20945;-88
2021/04/09 11:56:59;;;;;;;226.40;129.93;;;25.40;51.20;;;;;;5075592;28;20441;-88
2021/04/09 11:59:27;;;;;;;159.47;87.27;;;25.40;51.80;;;;;;5075691;28;20441;-88
2021/04/09 12:01:53;;;;;;;133.13;81.53;;;25.30;52.30;;;;;;5075660;28;20490;-86
2021/04/09 12:04:33;;;;;;;162.47;86.30;;;25.40;53.50;;;;;;5075523;28;20444;-86
2021/04/09 12:07:00;;;;;;;152.73;82.90;;;25.40;53.50;;;;;;5075169;28;20935;-84
2021/04/09 12:09:26;;;;;;;159.37;81.00;;;25.50;54.40;;;;;;5075418;28;20441;-83
2021/04/09 12:11:53;;;;;;;65.87;32.90;;;25.50;55.50;;;;;;5074939;28;20480;-80
2021/04/09 12:14:36;;;;;;;74.13;39.40;;;25.30;51.70;;;;;;5075210;28;20437;-81
2021/04/09 12:17:03;;;;;;;69.03;35.67;;;25.30;51.90;;;;;;5075037;28;20445;-80
2021/04/09 12:19:29;;;;;;;60.83;32.77;;;25.20;52.10;;;;;;5074860;28;20906;-82
2021/04/09 12:21:56;;;;;;;67.80;33.80;;;25.20;52.60;;;;;;5075031;28;20778;-80
2021/04/09 12:24:22;;;;;;;50.07;25.57;;;25.20;53.00;;;;;;5075116;28;20520;-89
2021/04/09 12:26:49;;;;;;;28.03;17.50;;;25.20;52.70;;;;;;5075216;28;20601;-89
2021/04/09 12:29:15;;;;;;;26.17;14.87;;;25.20;50.90;;;;;;5074957;28;20448;-89
2021/04/09 12:31:42;;;;;;;21.37;14.10;;;25.10;50.50;;;;;;5075354;28;20455;-90
2021/04/09 12:34:08;;;;;;;25.10;12.17;;;25.10;50.00;;;;;;5074974;28;20433;-88
2021/04/09 12:36:36;;;;;;;21.13;11.70;;;25.00;49.30;;;;;;5075022;28;20515;-80
2021/04/09 12:39:05;;;;;;;27.03;14.80;;;25.00;50.00;;;;;;5074833;28;20439;-88
2021/04/09 12:41:32;;;;;;;31.70;15.33;;;25.20;51.50;;;;;;5074889;28;20494;-89
2021/04/09 12:43:59;;;;;;;23.53;14.00;;;25.00;52.30;;;;;;5074782;28;20443;-89
2021/04/09 12:46:26;;;;;;;26.70;14.20;;;25.00;52.60;;;;;;5074931;28;20440;-88
2021/04/09 12:48:54;;;;;;;30.47;13.30;;;25.10;52.80;;;;;;5074705;28;20448;-88
2021/04/09 12:51:20;;;;;;;27.23;14.70;;;25.10;52.90;;;;;;5075783;28;20444;-90
2021/04/09 12:53:46;;;;;;;29.43;12.97;;;25.20;53.00;;;;;;5074804;28;20444;-90